Terminal Aerodrome Forecast
Issued by NWS Jacksonville, FL

Home | Current Version | Previous Version | Text Only | Print | Product List | Glossary On
Versions: 1 2 3 4 5 6 7 8 9 10 11 12 13 14 15 16 17 18
000
FTUS42 KJAX 291721
TAFGNV
TAF
KGNV 291721Z 2918/3018 12005KT P6SM SCT250
     FM291900 17005KT P6SM BKN250
     FM292100 21006KT P6SM BKN250
     FM300100 24003KT P6SM BKN250
     FM301000 28003KT 5SM BR SCT025 OVC050
     FM301230 28004KT P6SM OVC015
     FM301700 31012G18KT P6SM BKN025=

USA.gov is the U.S. government's official web portal to all federal, state and local government web resources and services.